| time (UTC) | temp F | wind direction | speed MPH | gust MPH | rain 1hr in | rain 24hr in | rain mn in | humidity % | barometer mb |
| 20260506192942 | 73 | 142 | 5.0 | 10.0 | 0.00 | 0.00 | 0.00 | 49 | 1018.0 |
| 20260506192441 | 73 | 117 | 2.0 | 6.0 | 0.00 | 0.00 | 0.00 | 50 | 1018.1 |
| 20260506191941 | 72 | 32 | 3.0 | 6.0 | 0.00 | 0.00 | 0.00 | 51 | 1018.2 |
| 20260506191302 | 72 | 85 | 4.0 | 10.0 | 0.00 | 0.00 | 0.00 | 51 | 1018.3 |
| 20260506190802 | 72 | 34 | 3.0 | 9.0 | 0.00 | 0.00 | 0.00 | 52 | 1018.4 |
| 20260506190303 | 71 | 50 | 5.0 | 9.0 | 0.00 | 0.00 | 0.00 | 54 | 1018.5 |
| 20260506185805 | 70 | 44 | 2.0 | 8.0 | 0.00 | 0.00 | 0.00 | 54 | 1018.4 |
| 20260506185306 | 70 | 10 | 1.0 | 7.0 | 0.00 | 0.00 | 0.00 | 54 | 1018.6 |
| 20260506184804 | 70 | 285 | 3.0 | 7.0 | 0.00 | 0.00 | 0.00 | 54 | 1018.7 |
| 20260506184303 | 71 | 50 | 2.0 | 7.0 | 0.00 | 0.00 | 0.00 | 53 | 1018.7 |
| 20260506183803 | 71 | 0 | 0.0 | 7.0 | 0.00 | 0.00 | 0.00 | 55 | 1018.8 |
| 20260506183303 | 72 | 336 | 1.0 | 7.0 | 0.00 | 0.00 | 0.00 | 53 | 1018.8 |
| 20260506182803 | 72 | 154 | 2.0 | 5.0 | 0.00 | 0.00 | 0.00 | 54 | 1018.7 |
| 20260506182306 | 71 | 0 | 0.0 | 3.0 | 0.00 | 0.00 | 0.00 | 56 | 1018.9 |
| 20260506181303 | 70 | 118 | 3.0 | 7.0 | 0.00 | 0.00 | 0.00 | 56 | 1019.0 |
| 20260506180803 | 70 | 124 | 2.0 | 6.0 | 0.00 | 0.00 | 0.00 | 56 | 1019.1 |
| 20260506180302 | 70 | 126 | 2.0 | 6.0 | 0.00 | 0.00 | 0.00 | 57 | 1019.1 |
| 20260506175803 | 70 | 170 | 2.0 | 5.0 | 0.00 | 0.00 | 0.00 | 57 | 1019.2 |
| 20260506175306 | 69 | 141 | 1.0 | 4.0 | 0.00 | 0.00 | 0.00 | 59 | 1019.2 |
| 20260506174802 | 68 | 126 | 2.0 | 5.0 | 0.00 | 0.00 | 0.00 | 61 | 1019.2 |
| 20260506174302 | 67 | 0 | 0.0 | 7.0 | 0.00 | 0.00 | 0.00 | 63 | 1019.2 |
| 20260506173802 | 67 | 291 | 3.0 | 8.0 | 0.00 | 0.00 | 0.00 | 63 | 1019.3 |
| 20260506173302 | 67 | 353 | 3.0 | 8.0 | 0.00 | 0.00 | 0.00 | 61 | 1019.3 |
| 20260506172802 | 67 | 44 | 1.0 | 4.0 | 0.00 | 0.00 | 0.00 | 63 | 1019.4 |
| 20260506172129 | 66 | 319 | 1.0 | 5.0 | 0.00 | 0.00 | 0.00 | 64 | 1019.5 |
| 20260506171631 | 66 | 353 | 2.0 | 9.0 | 0.00 | 0.00 | 0.00 | 65 | 1019.5 |
| 20260506171131 | 65 | 12 | 1.0 | 9.0 | 0.00 | 0.00 | 0.00 | 66 | 1019.5 |
| 20260506170129 | 65 | 241 | 1.0 | 6.0 | 0.00 | 0.00 | 0.00 | 67 | 1019.5 |
| 20260506165630 | 65 | 327 | 2.0 | 5.0 | 0.00 | 0.00 | 0.00 | 67 | 1019.6 |
| 20260506165129 | 64 | 0 | 0.0 | 8.0 | 0.00 | 0.00 | 0.00 | 68 | 1019.6 |
| 20260506164632 | 64 | 343 | 3.0 | 8.0 | 0.00 | 0.00 | 0.00 | 69 | 1019.7 |
| 20260506164129 | 64 | 0 | 0.0 | 5.0 | 0.00 | 0.00 | 0.00 | 70 | 1019.6 |
| 20260506163630 | 63 | 23 | 1.0 | 7.0 | 0.00 | 0.00 | 0.00 | 71 | 1019.6 |
| 20260506163130 | 63 | 271 | 3.0 | 9.0 | 0.00 | 0.00 | 0.00 | 71 | 1019.7 |
| 20260506162629 | 63 | 308 | 4.0 | 9.0 | 0.00 | 0.00 | 0.00 | 70 | 1019.7 |
| 20260506162130 | 63 | 291 | 3.0 | 8.0 | 0.00 | 0.00 | 0.00 | 71 | 1019.7 |
| 20260506161630 | 62 | 280 | 2.0 | 10.0 | 0.00 | 0.00 | 0.00 | 72 | 1019.7 |
| 20260506161129 | 62 | 306 | 5.0 | 10.0 | 0.00 | 0.00 | 0.00 | 72 | 1019.8 |
| 20260506160630 | 62 | 300 | 2.0 | 8.0 | 0.00 | 0.00 | 0.00 | 72 | 1019.8 |
| 20260506160129 | 61 | 312 | 3.0 | 9.0 | 0.00 | 0.00 | 0.00 | 72 | 1019.8 |
| 20260506155630 | 61 | 323 | 3.0 | 10.0 | 0.00 | 0.00 | 0.00 | 73 | 1019.8 |
| 20260506155129 | 61 | 2 | 3.0 | 10.0 | 0.00 | 0.00 | 0.00 | 73 | 1019.8 |
| 20260506154630 | 61 | 332 | 3.0 | 9.0 | 0.00 | 0.00 | 0.00 | 73 | 1019.7 |
| 20260506154130 | 61 | 1 | 3.0 | 10.0 | 0.00 | 0.00 | 0.00 | 73 | 1019.7 |
| 20260506153629 | 60 | 1 | 5.0 | 10.0 | 0.00 | 0.00 | 0.00 | 74 | 1019.7 |
| 20260506153130 | 60 | 355 | 5.0 | 11.0 | 0.00 | 0.00 | 0.00 | 75 | 1019.7 |
| 20260506152630 | 59 | 326 | 4.0 | 11.0 | 0.00 | 0.00 | 0.00 | 75 | 1019.7 |
| 20260506152129 | 59 | 335 | 2.0 | 10.0 | 0.00 | 0.00 | 0.00 | 76 | 1019.8 |
| 20260506151632 | 59 | 329 | 3.0 | 8.0 | 0.00 | 0.00 | 0.00 | 76 | 1019.8 |
| 20260506151129 | 58 | 318 | 4.0 | 8.0 | 0.00 | 0.00 | 0.00 | 77 | 1019.9 |
| 20260506150629 | 58 | 311 | 4.0 | 8.0 | 0.00 | 0.00 | 0.00 | 77 | 1019.8 |
| 20260506150129 | 58 | 308 | 4.0 | 8.0 | 0.00 | 0.00 | 0.00 | 76 | 1019.8 |
| 20260506145630 | 58 | 330 | 3.0 | 8.0 | 0.00 | 0.00 | 0.00 | 76 | 1019.8 |
| 20260506144943 | 58 | 310 | 3.0 | 5.0 | 0.00 | 0.00 | 0.00 | 78 | 1019.8 |
| 20260506144443 | 57 | 310 | 3.0 | 5.0 | 0.00 | 0.00 | 0.00 | 79 | 1019.7 |
| 20260506143943 | 57 | 282 | 2.0 | 4.0 | 0.00 | 0.00 | 0.00 | 79 | 1019.7 |
| 20260506143443 | 56 | 0 | 0.0 | 3.0 | 0.00 | 0.00 | 0.00 | 80 | 1019.7 |
| 20260506142943 | 56 | 0 | 0.0 | 0.0 | 0.00 | 0.00 | 0.00 | 81 | 1019.7 |
| 20260506142443 | 55 | 0 | 0.0 | 2.0 | 0.00 | 0.00 | 0.00 | 82 | 1019.6 |
| 20260506141944 | 55 | 0 | 0.0 | 2.0 | 0.00 | 0.00 | 0.00 | 83 | 1019.5 |
| 20260506141443 | 55 | 0 | 0.0 | 3.0 | 0.00 | 0.00 | 0.00 | 83 | 1019.5 |
| 20260506140943 | 54 | 227 | 1.0 | 4.0 | 0.00 | 0.00 | 0.00 | 83 | 1019.4 |
| 20260506135943 | 53 | 253 | 1.0 | 3.0 | 0.00 | 0.00 | 0.00 | 84 | 1019.2 |
| 20260506135442 | 53 | 0 | 0.0 | 6.0 | 0.00 | 0.00 | 0.00 | 84 | 1019.2 |
| 20260506134943 | 53 | 257 | 1.0 | 6.0 | 0.00 | 0.00 | 0.00 | 84 | 1019.1 |
| 20260506134443 | 52 | 256 | 2.0 | 5.0 | 0.00 | 0.00 | 0.00 | 84 | 1019.1 |
| 20260506133943 | 52 | 234 | 2.0 | 5.0 | 0.00 | 0.00 | 0.00 | 84 | 1019.1 |
| 20260506133443 | 52 | 241 | 1.0 | 4.0 | 0.00 | 0.00 | 0.00 | 84 | 1019.0 |
| 20260506132942 | 52 | 234 | 2.0 | 4.0 | 0.00 | 0.00 | 0.00 | 84 | 1019.0 |
| 20260506132443 | 52 | 240 | 2.0 | 3.0 | 0.00 | 0.00 | 0.00 | 83 | 1019.0 |
| 20260506131942 | 52 | 0 | 0.0 | 3.0 | 0.00 | 0.00 | 0.00 | 83 | 1018.9 |
| 20260506131443 | 52 | 0 | 0.0 | 3.0 | 0.00 | 0.00 | 0.00 | 83 | 1018.9 |
| 20260506130943 | 52 | 0 | 0.0 | 3.0 | 0.00 | 0.00 | 0.00 | 82 | 1018.8 |
| 20260506130442 | 53 | 308 | 1.0 | 3.0 | 0.00 | 0.00 | 0.00 | 82 | 1018.8 |
| 20260506125704 | 53 | 0 | 0.0 | 3.0 | 0.00 | 0.00 | 0.00 | 81 | 1018.7 |
| 20260506125204 | 53 | 316 | 1.0 | 3.0 | 0.00 | 0.00 | 0.00 | 81 | 1018.6 |
| 20260506124704 | 53 | 316 | 1.0 | 4.0 | 0.00 | 0.00 | 0.00 | 81 | 1018.6 |
| 20260506124204 | 53 | 315 | 1.0 | 4.0 | 0.00 | 0.00 | 0.00 | 81 | 1018.6 |
| 20260506123704 | 54 | 329 | 2.0 | 4.0 | 0.00 | 0.00 | 0.00 | 81 | 1018.5 |
| 20260506123204 | 54 | 327 | 1.0 | 3.0 | 0.00 | 0.00 | 0.00 | 81 | 1018.5 |
| 20260506122705 | 54 | 342 | 1.0 | 3.0 | 0.00 | 0.00 | 0.00 | 81 | 1018.5 |
| 20260506122205 | 54 | 323 | 1.0 | 4.0 | 0.00 | 0.00 | 0.00 | 81 | 1018.4 |
| 20260506121705 | 54 | 328 | 2.0 | 4.0 | 0.00 | 0.00 | 0.00 | 80 | 1018.4 |
| 20260506121206 | 54 | 322 | 2.0 | 4.0 | 0.00 | 0.00 | 0.00 | 80 | 1018.3 |
| 20260506120704 | 55 | 319 | 2.0 | 5.0 | 0.00 | 0.00 | 0.00 | 79 | 1018.2 |
| 20260506120204 | 55 | 317 | 1.0 | 5.0 | 0.00 | 0.00 | 0.00 | 79 | 1018.2 |
| 20260506115704 | 55 | 318 | 3.0 | 5.0 | 0.00 | 0.00 | 0.00 | 78 | 1018.1 |
| 20260506115204 | 55 | 315 | 2.0 | 4.0 | 0.00 | 0.00 | 0.00 | 78 | 1018.1 |
| 20260506114704 | 56 | 317 | 2.0 | 4.0 | 0.00 | 0.00 | 0.00 | 77 | 1018.1 |
| 20260506114204 | 56 | 311 | 2.0 | 4.0 | 0.00 | 0.00 | 0.00 | 77 | 1018.1 |
| 20260506113704 | 56 | 293 | 1.0 | 4.0 | 0.00 | 0.00 | 0.00 | 76 | 1018.0 |
| 20260506113204 | 56 | 280 | 2.0 | 4.0 | 0.00 | 0.00 | 0.00 | 76 | 1018.0 |
| 20260506112704 | 56 | 275 | 1.0 | 3.0 | 0.00 | 0.00 | 0.00 | 75 | 1018.0 |
| 20260506112204 | 57 | 0 | 0.0 | 3.0 | 0.00 | 0.00 | 0.00 | 75 | 1018.0 |
| 20260506111705 | 57 | 0 | 0.0 | 5.0 | 0.00 | 0.00 | 0.00 | 75 | 1018.0 |
| 20260506111204 | 57 | 275 | 2.0 | 6.0 | 0.00 | 0.00 | 0.00 | 75 | 1018.0 |
| 20260506110704 | 57 | 280 | 2.0 | 6.0 | 0.00 | 0.00 | 0.00 | 74 | 1018.0 |
| 20260506110204 | 57 | 283 | 3.0 | 7.0 | 0.00 | 0.00 | 0.00 | 74 | 1018.0 |
| 20260506105204 | 57 | 289 | 3.0 | 8.0 | 0.00 | 0.00 | 0.00 | 75 | 1018.0 |
| 20260506104704 | 56 | 290 | 3.0 | 8.0 | 0.00 | 0.00 | 0.00 | 75 | 1018.0 |
| 20260506104204 | 56 | 281 | 2.0 | 6.0 | 0.00 | 0.00 | 0.00 | 75 | 1018.0 |
| 20260506103704 | 56 | 278 | 4.0 | 6.0 | 0.00 | 0.00 | 0.00 | 76 | 1018.0 |
| 20260506103204 | 55 | 279 | 3.0 | 6.0 | 0.00 | 0.00 | 0.00 | 76 | 1017.9 |
| 20260506102204 | 54 | 277 | 3.0 | 6.0 | 0.00 | 0.00 | 0.00 | 77 | 1017.8 |
| 20260506101704 | 54 | 269 | 3.0 | 7.0 | 0.00 | 0.00 | 0.00 | 77 | 1017.8 |
| 20260506101204 | 54 | 280 | 4.0 | 7.0 | 0.00 | 0.00 | 0.00 | 77 | 1017.8 |
| 20260506100705 | 53 | 266 | 2.0 | 4.0 | 0.00 | 0.00 | 0.00 | 77 | 1017.7 |
| 20260506100204 | 53 | 267 | 2.0 | 3.0 | 0.00 | 0.00 | 0.00 | 77 | 1017.8 |
| 20260506095204 | 53 | 267 | 2.0 | 4.0 | 0.00 | 0.00 | 0.00 | 78 | 1017.7 |
| 20260506094704 | 53 | 253 | 2.0 | 4.0 | 0.00 | 0.00 | 0.00 | 78 | 1017.7 |
| 20260506094204 | 53 | 0 | 0.0 | 2.0 | 0.00 | 0.00 | 0.00 | 77 | 1017.7 |
| 20260506093703 | 53 | 0 | 0.0 | 2.0 | 0.00 | 0.00 | 0.00 | 77 | 1017.7 |
| 20260506093205 | 53 | 0 | 0.0 | 2.0 | 0.00 | 0.00 | 0.00 | 77 | 1017.6 |
| 20260506092204 | 53 | 0 | 0.0 | 2.0 | 0.00 | 0.00 | 0.00 | 78 | 1017.6 |
| 20260506091704 | 53 | 0 | 0.0 | 2.0 | 0.00 | 0.00 | 0.00 | 77 | 1017.6 |
| 20260506091204 | 53 | 0 | 0.0 | 2.0 | 0.00 | 0.00 | 0.00 | 77 | 1017.6 |
| 20260506090704 | 53 | 0 | 0.0 | 1.0 | 0.00 | 0.00 | 0.00 | 78 | 1017.6 |
| 20260506090203 | 53 | 0 | 0.0 | 1.0 | 0.00 | 0.00 | 0.00 | 78 | 1017.6 |
| 20260506084704 | 53 | 0 | 0.0 | 3.0 | 0.00 | 0.00 | 0.00 | 78 | 1017.6 |
| 20260506084204 | 53 | 251 | 1.0 | 4.0 | 0.00 | 0.00 | 0.00 | 78 | 1017.7 |
| 20260506083705 | 53 | 248 | 1.0 | 4.0 | 0.00 | 0.00 | 0.00 | 77 | 1017.6 |
| 20260506083204 | 53 | 0 | 0.0 | 7.0 | 0.00 | 0.00 | 0.00 | 77 | 1017.7 |
| 20260506082203 | 53 | 269 | 2.0 | 4.0 | 0.00 | 0.00 | 0.00 | 77 | 1017.5 |
| 20260506081703 | 53 | 280 | 1.0 | 3.0 | 0.00 | 0.00 | 0.00 | 77 | 1017.5 |
| 20260506081203 | 53 | 281 | 1.0 | 4.0 | 0.00 | 0.00 | 0.00 | 77 | 1017.5 |
| 20260506080703 | 53 | 279 | 2.0 | 4.0 | 0.00 | 0.00 | 0.00 | 76 | 1017.5 |
| 20260506080205 | 53 | 276 | 2.0 | 3.0 | 0.00 | 0.00 | 0.00 | 75 | 1017.4 |
| 20260506073205 | 55 | 277 | 2.0 | 4.0 | 0.00 | 0.00 | 0.00 | 76 | 1017.1 |
| 20260506072203 | 55 | 0 | 0.0 | 3.0 | 0.00 | 0.00 | 0.00 | 78 | 1016.9 |
| 20260506071704 | 55 | 0 | 0.0 | 3.0 | 0.00 | 0.00 | 0.00 | 78 | 1016.9 |
| 20260506071204 | 55 | 300 | 1.0 | 3.0 | 0.00 | 0.00 | 0.00 | 77 | 1016.8 |
| 20260506070703 | 56 | 283 | 1.0 | 4.0 | 0.00 | 0.00 | 0.00 | 76 | 1016.8 |
| 20260506070204 | 56 | 287 | 2.0 | 4.0 | 0.00 | 0.00 | 0.00 | 75 | 1016.7 |
| 20260506062021 | 59 | 0 | 0.0 | 0.0 | 0.00 | 0.00 | 0.00 | 74 | 1016.2 |
| 20260506061521 | 59 | 0 | 0.0 | 0.0 | 0.00 | 0.00 | 0.00 | 73 | 1016.1 |
| 20260506061022 | 59 | 0 | 0.0 | 0.0 | 0.00 | 0.00 | 0.00 | 73 | 1016.2 |
| 20260506060522 | 60 | 0 | 0.0 | 0.0 | 0.00 | 0.00 | 0.00 | 73 | 1016.1 |
| 20260506051021 | 61 | 0 | 0.0 | 0.0 | 0.00 | 0.00 | 0.00 | 69 | 1015.9 |
| 20260506050521 | 61 | 0 | 0.0 | 0.0 | 0.00 | 0.00 | 0.00 | 69 | 1015.8 |
| 20260506045021 | 61 | 0 | 0.0 | 0.0 | 0.00 | 0.00 | 0.00 | 68 | 1015.7 |
| 20260506044521 | 61 | 0 | 0.0 | 0.0 | 0.00 | 0.00 | 0.00 | 68 | 1015.6 |
| 20260506044020 | 61 | 0 | 0.0 | 0.0 | 0.00 | 0.00 | 0.00 | 68 | 1015.5 |
| 20260506043520 | 62 | 0 | 0.0 | 0.0 | 0.00 | 0.00 | 0.00 | 68 | 1015.4 |
| 20260506043021 | 62 | 0 | 0.0 | 0.0 | 0.00 | 0.00 | 0.00 | 67 | 1015.4 |
| 20260506042520 | 62 | 0 | 0.0 | 0.0 | 0.00 | 0.00 | 0.00 | 66 | 1015.3 |
| 20260506042021 | 62 | 0 | 0.0 | 0.0 | 0.00 | 0.00 | 0.00 | 66 | 1015.2 |
| 20260506041520 | 62 | 0 | 0.0 | 0.0 | 0.00 | 0.00 | 0.00 | 66 | 1015.2 |
| 20260506041020 | 62 | 0 | 0.0 | 0.0 | 0.00 | 0.00 | 0.00 | 65 | 1015.2 |
| 20260506040521 | 63 | 0 | 0.0 | 0.0 | 0.00 | 0.00 | 0.00 | 65 | 1015.2 |
| 20260506040021 | 63 | 0 | 0.0 | 0.0 | 0.00 | 0.00 | 0.00 | 64 | 1015.1 |
| 20260506035521 | 63 | 0 | 0.0 | 0.0 | 0.00 | 0.00 | 0.00 | 63 | 1015.0 |
| 20260506035021 | 63 | 0 | 0.0 | 0.0 | 0.00 | 0.00 | 0.00 | 63 | 1015.0 |
| 20260506034520 | 64 | 0 | 0.0 | 0.0 | 0.00 | 0.00 | 0.00 | 62 | 1014.9 |
| 20260506034020 | 64 | 0 | 0.0 | 0.0 | 0.00 | 0.00 | 0.00 | 61 | 1014.8 |
| 20260506033520 | 64 | 0 | 0.0 | 0.0 | 0.00 | 0.00 | 0.00 | 61 | 1014.7 |
| 20260506033020 | 64 | 0 | 0.0 | 0.0 | 0.00 | 0.00 | 0.00 | 61 | 1014.7 |
| 20260506032521 | 64 | 0 | 0.0 | 0.0 | 0.00 | 0.00 | 0.00 | 60 | 1014.6 |
| 20260506032021 | 64 | 0 | 0.0 | 0.0 | 0.00 | 0.00 | 0.00 | 60 | 1014.5 |
| 20260506031503 | 64 | 0 | 0.0 | 0.0 | 0.00 | 0.00 | 0.00 | 60 | 1014.5 |
| 20260506031002 | 64 | 0 | 0.0 | 0.0 | 0.00 | 0.00 | 0.00 | 60 | 1014.3 |
| 20260506030502 | 65 | 0 | 0.0 | 0.0 | 0.00 | 0.00 | 0.00 | 59 | 1014.3 |
| 20260506030002 | 65 | 0 | 0.0 | 0.0 | 0.00 | 0.00 | 0.00 | 59 | 1014.3 |
| 20260506025505 | 65 | 0 | 0.0 | 0.0 | 0.00 | 0.00 | 0.00 | 58 | 1014.2 |
| 20260506025003 | 65 | 0 | 0.0 | 0.0 | 0.00 | 0.00 | 0.00 | 58 | 1014.0 |
| 20260506024503 | 65 | 0 | 0.0 | 2.0 | 0.00 | 0.00 | 0.00 | 58 | 1014.1 |
| 20260506024003 | 66 | 0 | 0.0 | 2.0 | 0.00 | 0.00 | 0.00 | 57 | 1014.0 |
| 20260506023002 | 66 | 0 | 0.0 | 1.0 | 0.00 | 0.00 | 0.00 | 57 | 1013.9 |
| 20260506022502 | 66 | 0 | 0.0 | 2.0 | 0.00 | 0.00 | 0.00 | 57 | 1013.9 |
| 20260506022002 | 66 | 0 | 0.0 | 3.0 | 0.00 | 0.00 | 0.00 | 56 | 1013.9 |
| 20260506021502 | 66 | 0 | 0.0 | 4.0 | 0.00 | 0.00 | 0.00 | 56 | 1013.8 |
| 20260506021002 | 67 | 236 | 2.0 | 4.0 | 0.00 | 0.00 | 0.00 | 55 | 1013.9 |
| 20260506020502 | 67 | 241 | 1.0 | 6.0 | 0.00 | 0.00 | 0.00 | 54 | 1013.8 |
| 20260506020002 | 68 | 265 | 3.0 | 6.0 | 0.00 | 0.00 | 0.00 | 53 | 1013.8 |
| 20260506015502 | 68 | 256 | 1.0 | 6.0 | 0.00 | 0.00 | 0.00 | 53 | 1013.8 |
| 20260506015002 | 68 | 254 | 1.0 | 6.0 | 0.00 | 0.00 | 0.00 | 54 | 1013.7 |
| 20260506014502 | 68 | 232 | 1.0 | 5.0 | 0.00 | 0.00 | 0.00 | 53 | 1013.8 |
| 20260506014002 | 69 | 194 | 2.0 | 4.0 | 0.00 | 0.00 | 0.00 | 52 | 1013.7 |
| 20260506013502 | 69 | 0 | 0.0 | 3.0 | 0.00 | 0.00 | 0.00 | 51 | 1013.8 |
| 20260506013002 | 69 | 0 | 0.0 | 3.0 | 0.00 | 0.00 | 0.00 | 52 | 1013.7 |
| 20260506012502 | 70 | 272 | 1.0 | 3.0 | 0.00 | 0.00 | 0.00 | 49 | 1013.7 |
| 20260506012001 | 70 | 0 | 0.0 | 3.0 | 0.00 | 0.00 | 0.00 | 49 | 1013.7 |
| 20260506011502 | 70 | 0 | 0.0 | 2.0 | 0.00 | 0.00 | 0.00 | 50 | 1013.7 |
| 20260506011001 | 70 | 0 | 0.0 | 2.0 | 0.00 | 0.00 | 0.00 | 50 | 1013.7 |
| 20260506010502 | 69 | 0 | 0.0 | 5.0 | 0.00 | 0.00 | 0.00 | 51 | 1013.7 |
| 20260506010001 | 69 | 0 | 0.0 | 5.0 | 0.00 | 0.00 | 0.00 | 51 | 1013.8 |
| 20260506005501 | 69 | 334 | 1.0 | 4.0 | 0.00 | 0.00 | 0.00 | 52 | 1013.7 |
| 20260506005001 | 69 | 0 | 0.0 | 2.0 | 0.00 | 0.00 | 0.00 | 52 | 1013.6 |
| 20260506004503 | 68 | 0 | 0.0 | 4.0 | 0.00 | 0.00 | 0.00 | 53 | 1013.6 |
| 20260506004002 | 68 | 319 | 1.0 | 4.0 | 0.00 | 0.00 | 0.00 | 54 | 1013.6 |
| 20260506003501 | 67 | 0 | 0.0 | 4.0 | 0.00 | 0.00 | 0.00 | 55 | 1013.6 |
| 20260506003001 | 67 | 329 | 1.0 | 4.0 | 0.00 | 0.00 | 0.00 | 56 | 1013.6 |
| 20260506002502 | 66 | 302 | 2.0 | 4.0 | 0.00 | 0.00 | 0.00 | 56 | 1013.7 |
| 20260506002002 | 66 | 0 | 0.0 | 4.0 | 0.00 | 0.00 | 0.00 | 56 | 1013.7 |
| 20260506001503 | 66 | 281 | 1.0 | 4.0 | 0.00 | 0.00 | 0.00 | 56 | 1013.7 |
| 20260506001002 | 66 | 272 | 3.0 | 6.0 | 0.00 | 0.00 | 0.00 | 56 | 1013.8 |
| 20260506000503 | 66 | 294 | 2.0 | 6.0 | 0.00 | 0.00 | 0.00 | 56 | 1013.8 |
| 20260506000001 | 66 | 0 | 0.0 | 4.0 | 0.00 | 0.00 | 0.00 | 56 | 1013.8 |
| 20260505235501 | 66 | 0 | 0.0 | 4.0 | 0.00 | 0.00 | 0.00 | 56 | 1013.8 |
| 20260505235001 | 66 | 333 | 2.0 | 5.0 | 0.00 | 0.00 | 0.00 | 56 | 1013.8 |
| 20260505234502 | 66 | 347 | 2.0 | 5.0 | 0.00 | 0.00 | 0.00 | 56 | 1013.9 |
| 20260505234002 | 66 | 357 | 2.0 | 8.0 | 0.00 | 0.00 | 0.00 | 56 | 1014.0 |
| 20260505233504 | 66 | 2 | 3.0 | 8.0 | 0.00 | 0.00 | 0.00 | 56 | 1014.0 |
| 20260505233004 | 66 | 0 | 0.0 | 5.0 | 0.00 | 0.00 | 0.00 | 56 | 1014.0 |
| 20260505232502 | 66 | 318 | 2.0 | 5.0 | 0.00 | 0.00 | 0.00 | 56 | 1014.0 |
| 20260505232002 | 66 | 328 | 2.0 | 5.0 | 0.00 | 0.00 | 0.00 | 57 | 1014.0 |
| 20260505231501 | 65 | 312 | 2.0 | 5.0 | 0.00 | 0.00 | 0.00 | 56 | 1013.9 |
| 20260505231002 | 65 | 302 | 1.0 | 4.0 | 0.00 | 0.00 | 0.00 | 57 | 1014.0 |
| 20260505230002 | 65 | 340 | 1.0 | 5.0 | 0.00 | 0.00 | 0.00 | 59 | 1014.0 |
| 20260505225501 | 65 | 360 | 2.0 | 6.0 | 0.00 | 0.00 | 0.00 | 60 | 1014.1 |
| 20260505225001 | 65 | 307 | 4.0 | 6.0 | 0.00 | 0.00 | 0.00 | 61 | 1014.2 |
| 20260505224502 | 65 | 0 | 0.0 | 4.0 | 0.00 | 0.00 | 0.00 | 60 | 1014.2 |
| 20260505224002 | 65 | 52 | 2.0 | 5.0 | 0.00 | 0.00 | 0.00 | 61 | 1014.3 |
| 20260505223502 | 65 | 326 | 1.0 | 5.0 | 0.00 | 0.00 | 0.00 | 61 | 1014.3 |
| 20260505223001 | 65 | 0 | 0.0 | 5.0 | 0.00 | 0.00 | 0.00 | 62 | 1014.4 |
| 20260505222501 | 64 | 0 | 0.0 | 5.0 | 0.00 | 0.00 | 0.00 | 63 | 1014.3 |
| 20260505222003 | 64 | 0 | 0.0 | 7.0 | 0.00 | 0.00 | 0.00 | 67 | 1014.3 |
| 20260505221502 | 63 | 93 | 2.0 | 10.0 | 0.00 | 0.00 | 0.00 | 69 | 1014.4 |
| 20260505221002 | 63 | 79 | 3.0 | 10.0 | 0.00 | 0.00 | 0.00 | 71 | 1014.4 |
| 20260505220501 | 63 | 77 | 6.0 | 10.0 | 0.00 | 0.00 | 0.00 | 69 | 1014.5 |
| 20260505220001 | 63 | 78 | 6.0 | 11.0 | 0.00 | 0.00 | 0.00 | 67 | 1014.5 |
| 20260505215501 | 63 | 77 | 6.0 | 11.0 | 0.00 | 0.00 | 0.00 | 66 | 1014.6 |
| 20260505214912 | 63 | 60 | 6.0 | 12.0 | 0.00 | 0.00 | 0.00 | 67 | 1014.7 |
| 20260505214413 | 63 | 59 | 7.0 | 11.0 | 0.00 | 0.00 | 0.00 | 68 | 1014.7 |
| 20260505213913 | 63 | 73 | 7.0 | 13.0 | 0.00 | 0.00 | 0.00 | 67 | 1014.8 |
| 20260505213413 | 64 | 65 | 9.0 | 13.0 | 0.00 | 0.00 | 0.00 | 65 | 1014.8 |
| 20260505212915 | 65 | 59 | 9.0 | 13.0 | 0.00 | 0.00 | 0.00 | 62 | 1014.8 |
| 20260505212227 | 66 | 348 | 2.0 | 7.0 | 0.00 | 0.00 | 0.00 | 59 | 1014.8 |
| 20260505211726 | 66 | 324 | 2.0 | 7.0 | 0.00 | 0.00 | 0.00 | 58 | 1014.8 |
| 20260505211228 | 66 | 23 | 2.0 | 7.0 | 0.00 | 0.00 | 0.00 | 57 | 1014.8 |
| 20260505210226 | 65 | 0 | 0.0 | 4.0 | 0.00 | 0.00 | 0.00 | 58 | 1014.7 |
| 20260505205727 | 65 | 0 | 0.0 | 5.0 | 0.00 | 0.00 | 0.00 | 58 | 1014.7 |
| 20260505205226 | 65 | 0 | 0.0 | 8.0 | 0.00 | 0.00 | 0.00 | 59 | 1014.7 |
| 20260505204727 | 66 | 62 | 3.0 | 8.0 | 0.00 | 0.00 | 0.00 | 58 | 1014.7 |
| 20260505204228 | 66 | 71 | 2.0 | 5.0 | 0.00 | 0.00 | 0.00 | 59 | 1014.8 |
| 20260505203727 | 66 | 119 | 1.0 | 9.0 | 0.00 | 0.00 | 0.00 | 60 | 1014.7 |
| 20260505203227 | 65 | 0 | 0.0 | 10.0 | 0.00 | 0.00 | 0.00 | 60 | 1014.7 |
| 20260505202727 | 65 | 82 | 4.0 | 10.0 | 0.00 | 0.00 | 0.00 | 61 | 1014.8 |
| 20260505202228 | 65 | 73 | 4.0 | 9.0 | 0.00 | 0.00 | 0.00 | 60 | 1014.8 |
| 20260505201227 | 65 | 48 | 1.0 | 3.0 | 0.00 | 0.00 | 0.00 | 59 | 1014.8 |
| 20260505200726 | 65 | 0 | 0.0 | 5.0 | 0.00 | 0.00 | 0.00 | 59 | 1014.8 |
| 20260505200227 | 65 | 311 | 2.0 | 5.0 | 0.00 | 0.00 | 0.00 | 59 | 1014.9 |
| 20260505195726 | 65 | 304 | 2.0 | 8.0 | 0.00 | 0.00 | 0.00 | 58 | 1014.8 |
| 20260505195226 | 66 | 8 | 3.0 | 8.0 | 0.00 | 0.00 | 0.00 | 59 | 1014.9 |
| 20260505194726 | 65 | 0 | 0.0 | 7.0 | 0.00 | 0.00 | 0.00 | 59 | 1015.0 |
| 20260505194227 | 65 | 63 | 2.0 | 8.0 | 0.00 | 0.00 | 0.00 | 58 | 1015.0 |
| 20260505193726 | 65 | 28 | 3.0 | 8.0 | 0.00 | 0.00 | 0.00 | 60 | 1015.0 |